sensor_id;sensor_type;location;lat;lon;timestamp;P1;durP1;ratioP1;P2;durP2;ratioP2
31238;SDS011;17871;31.584;74.450;2022-11-14T00:01:04;91.40;;;49.58;;
31238;SDS011;17871;31.584;74.450;2022-11-14T00:03:53;87.95;;;46.13;;
31238;SDS011;17871;31.584;74.450;2022-11-14T00:06:41;88.18;;;45.65;;
31238;SDS011;17871;31.584;74.450;2022-11-14T00:09:29;84.63;;;45.58;;
31238;SDS011;17871;31.584;74.450;2022-11-14T00:12:16;94.07;;;46.25;;
31238;SDS011;17871;31.584;74.450;2022-11-14T00:15:03;94.60;;;46.35;;
31238;SDS011;17871;31.584;74.450;2022-11-14T00:17:51;82.50;;;41.45;;
31238;SDS011;17871;31.584;74.450;2022-11-14T00:20:39;73.75;;;37.08;;
31238;SDS011;17871;31.584;74.450;2022-11-14T00:23:26;74.32;;;35.55;;
31238;SDS011;17871;31.584;74.450;2022-11-14T00:26:14;65.57;;;34.30;;
31238;SDS011;17871;31.584;74.450;2022-11-14T00:29:02;55.05;;;32.60;;
31238;SDS011;17871;31.584;74.450;2022-11-14T00:31:50;50.38;;;27.88;;
31238;SDS011;17871;31.584;74.450;2022-11-14T00:34:38;45.40;;;22.52;;
31238;SDS011;17871;31.584;74.450;2022-11-14T00:37:26;39.72;;;20.17;;
31238;SDS011;17871;31.584;74.450;2022-11-14T00:40:13;34.10;;;17.92;;
31238;SDS011;17871;31.584;74.450;2022-11-14T00:43:01;28.63;;;16.98;;
31238;SDS011;17871;31.584;74.450;2022-11-14T00:45:48;26.33;;;14.77;;
31238;SDS011;17871;31.584;74.450;2022-11-14T00:48:36;29.95;;;15.88;;
31238;SDS011;17871;31.584;74.450;2022-11-14T00:51:23;23.13;;;14.57;;
31238;SDS011;17871;31.584;74.450;2022-11-14T00:54:11;50.13;;;20.13;;
31238;SDS011;17871;31.584;74.450;2022-11-14T00:56:58;31.83;;;15.93;;
31238;SDS011;17871;31.584;74.450;2022-11-14T00:59:46;29.67;;;15.73;;
31238;SDS011;17871;31.584;74.450;2022-11-14T01:02:35;30.75;;;14.10;;
31238;SDS011;17871;31.584;74.450;2022-11-14T01:05:24;29.60;;;13.88;;
31238;SDS011;17871;31.584;74.450;2022-11-14T01:08:13;25.42;;;14.55;;
31238;SDS011;17871;31.584;74.450;2022-11-14T01:11:15;49.15;;;23.48;;
31238;SDS011;17871;31.584;74.450;2022-11-14T01:14:06;39.45;;;19.73;;
31238;SDS011;17871;31.584;74.450;2022-11-14T01:16:55;36.92;;;18.40;;
31238;SDS011;17871;31.584;74.450;2022-11-14T01:19:42;33.33;;;16.50;;
31238;SDS011;17871;31.584;74.450;2022-11-14T01:22:31;30.88;;;16.90;;
31238;SDS011;17871;31.584;74.450;2022-11-14T01:25:19;31.70;;;14.40;;
31238;SDS011;17871;31.584;74.450;2022-11-14T01:28:12;25.25;;;13.00;;
31238;SDS011;17871;31.584;74.450;2022-11-14T01:31:08;20.98;;;11.75;;
31238;SDS011;17871;31.584;74.450;2022-11-14T01:34:05;24.20;;;11.32;;
31238;SDS011;17871;31.584;74.450;2022-11-14T01:36:53;20.17;;;11.98;;
31238;SDS011;17871;31.584;74.450;2022-11-14T01:39:42;28.85;;;15.77;;
31238;SDS011;17871;31.584;74.450;2022-11-14T01:42:30;25.23;;;13.68;;
31238;SDS011;17871;31.584;74.450;2022-11-14T01:48:49;23.13;;;13.23;;
31238;SDS011;17871;31.584;74.450;2022-11-14T01:51:41;29.05;;;14.48;;
31238;SDS011;17871;31.584;74.450;2022-11-14T01:54:49;23.20;;;12.02;;
31238;SDS011;17871;31.584;74.450;2022-11-14T01:57:43;18.40;;;11.23;;
31238;SDS011;17871;31.584;74.450;2022-11-14T02:00:34;21.92;;;9.75;;
31238;SDS011;17871;31.584;74.450;2022-11-14T02:03:22;25.48;;;9.95;;
31238;SDS011;17871;31.584;74.450;2022-11-14T02:06:12;15.48;;;9.20;;
31238;SDS011;17871;31.584;74.450;2022-11-14T02:09:04;18.67;;;9.50;;
31238;SDS011;17871;31.584;74.450;2022-11-14T02:11:54;19.10;;;9.52;;
31238;SDS011;17871;31.584;74.450;2022-11-14T02:14:45;17.65;;;8.60;;
31238;SDS011;17871;31.584;74.450;2022-11-14T02:17:36;21.88;;;9.88;;
31238;SDS011;17871;31.584;74.450;2022-11-14T02:20:28;17.52;;;10.80;;
31238;SDS011;17871;31.584;74.450;2022-11-14T02:23:25;15.60;;;9.60;;
31238;SDS011;17871;31.584;74.450;2022-11-14T02:26:17;23.10;;;13.27;;
31238;SDS011;17871;31.584;74.450;2022-11-14T02:29:07;26.85;;;11.50;;
31238;SDS011;17871;31.584;74.450;2022-11-14T02:31:57;23.33;;;11.55;;
31238;SDS011;17871;31.584;74.450;2022-11-14T02:34:45;22.88;;;12.60;;
31238;SDS011;17871;31.584;74.450;2022-11-14T02:37:33;24.48;;;11.52;;
31238;SDS011;17871;31.584;74.450;2022-11-14T02:40:21;27.35;;;11.20;;
31238;SDS011;17871;31.584;74.450;2022-11-14T02:43:10;20.55;;;10.73;;
31238;SDS011;17871;31.584;74.450;2022-11-14T02:45:59;18.55;;;11.00;;
31238;SDS011;17871;31.584;74.450;2022-11-14T02:48:50;18.00;;;11.00;;
31238;SDS011;17871;31.584;74.450;2022-11-14T02:51:38;24.17;;;11.32;;
31238;SDS011;17871;31.584;74.450;2022-11-14T02:54:26;22.58;;;11.02;;
31238;SDS011;17871;31.584;74.450;2022-11-14T02:57:14;24.27;;;12.30;;
31238;SDS011;17871;31.584;74.450;2022-11-14T03:00:03;22.10;;;11.15;;
31238;SDS011;17871;31.584;74.450;2022-11-14T03:03:00;21.30;;;11.50;;
31238;SDS011;17871;31.584;74.450;2022-11-14T03:05:48;20.77;;;11.15;;
31238;SDS011;17871;31.584;74.450;2022-11-14T03:08:39;21.35;;;12.05;;
31238;SDS011;17871;31.584;74.450;2022-11-14T03:11:27;22.92;;;12.68;;
31238;SDS011;17871;31.584;74.450;2022-11-14T03:14:14;22.15;;;11.05;;
31238;SDS011;17871;31.584;74.450;2022-11-14T03:17:03;20.50;;;11.45;;
31238;SDS011;17871;31.584;74.450;2022-11-14T03:19:51;17.55;;;10.20;;
31238;SDS011;17871;31.584;74.450;2022-11-14T03:22:40;18.58;;;11.05;;
31238;SDS011;17871;31.584;74.450;2022-11-14T03:25:27;25.02;;;10.98;;
31238;SDS011;17871;31.584;74.450;2022-11-14T03:28:15;19.02;;;10.68;;
31238;SDS011;17871;31.584;74.450;2022-11-14T03:31:03;22.38;;;11.10;;
31238;SDS011;17871;31.584;74.450;2022-11-14T03:33:52;34.00;;;19.27;;
31238;SDS011;17871;31.584;74.450;2022-11-14T03:36:40;23.50;;;12.38;;
31238;SDS011;17871;31.584;74.450;2022-11-14T03:39:28;23.25;;;11.23;;
31238;SDS011;17871;31.584;74.450;2022-11-14T03:42:16;25.73;;;12.85;;
31238;SDS011;17871;31.584;74.450;2022-11-14T03:45:04;21.33;;;13.25;;
31238;SDS011;17871;31.584;74.450;2022-11-14T03:47:53;22.02;;;12.82;;
31238;SDS011;17871;31.584;74.450;2022-11-14T03:50:41;25.05;;;10.80;;
31238;SDS011;17871;31.584;74.450;2022-11-14T03:53:30;24.15;;;11.27;;
31238;SDS011;17871;31.584;74.450;2022-11-14T03:56:17;16.80;;;10.48;;
31238;SDS011;17871;31.584;74.450;2022-11-14T03:59:05;19.75;;;11.30;;
31238;SDS011;17871;31.584;74.450;2022-11-14T04:01:54;23.00;;;11.75;;
31238;SDS011;17871;31.584;74.450;2022-11-14T04:04:41;20.33;;;11.13;;
31238;SDS011;17871;31.584;74.450;2022-11-14T04:07:32;20.85;;;10.95;;
31238;SDS011;17871;31.584;74.450;2022-11-14T04:10:20;24.92;;;13.68;;
31238;SDS011;17871;31.584;74.450;2022-11-14T04:13:08;26.73;;;12.82;;
31238;SDS011;17871;31.584;74.450;2022-11-14T04:15:56;21.80;;;11.75;;
31238;SDS011;17871;31.584;74.450;2022-11-14T04:18:46;22.42;;;12.00;;
31238;SDS011;17871;31.584;74.450;2022-11-14T04:21:34;26.25;;;11.90;;
31238;SDS011;17871;31.584;74.450;2022-11-14T04:24:22;21.83;;;12.45;;
31238;SDS011;17871;31.584;74.450;2022-11-14T04:27:10;31.17;;;12.07;;
31238;SDS011;17871;31.584;74.450;2022-11-14T04:29:58;23.48;;;13.50;;
31238;SDS011;17871;31.584;74.450;2022-11-14T04:32:46;24.65;;;11.88;;
31238;SDS011;17871;31.584;74.450;2022-11-14T04:35:35;28.90;;;13.02;;
31238;SDS011;17871;31.584;74.450;2022-11-14T04:38:23;24.85;;;14.25;;
31238;SDS011;17871;31.584;74.450;2022-11-14T04:41:11;28.35;;;14.50;;
31238;SDS011;17871;31.584;74.450;2022-11-14T04:43:59;29.00;;;14.32;;
31238;SDS011;17871;31.584;74.450;2022-11-14T04:46:47;30.67;;;16.17;;
31238;SDS011;17871;31.584;74.450;2022-11-14T04:49:35;31.63;;;16.70;;
31238;SDS011;17871;31.584;74.450;2022-11-14T04:52:23;37.72;;;16.73;;
31238;SDS011;17871;31.584;74.450;2022-11-14T04:55:11;30.55;;;15.90;;
31238;SDS011;17871;31.584;74.450;2022-11-14T04:57:59;21.90;;;13.15;;
31238;SDS011;17871;31.584;74.450;2022-11-14T05:00:47;26.50;;;14.32;;
31238;SDS011;17871;31.584;74.450;2022-11-14T05:03:35;29.55;;;13.65;;
31238;SDS011;17871;31.584;74.450;2022-11-14T05:06:24;28.65;;;14.07;;
31238;SDS011;17871;31.584;74.450;2022-11-14T05:09:12;26.75;;;12.52;;
31238;SDS011;17871;31.584;74.450;2022-11-14T05:12:01;20.67;;;12.10;;
31238;SDS011;17871;31.584;74.450;2022-11-14T05:14:50;19.35;;;12.52;;
31238;SDS011;17871;31.584;74.450;2022-11-14T05:17:38;20.80;;;12.05;;
31238;SDS011;17871;31.584;74.450;2022-11-14T05:20:26;20.40;;;12.52;;
31238;SDS011;17871;31.584;74.450;2022-11-14T05:23:21;20.25;;;11.43;;
31238;SDS011;17871;31.584;74.450;2022-11-14T05:26:11;18.45;;;10.73;;
31238;SDS011;17871;31.584;74.450;2022-11-14T05:29:01;17.10;;;10.85;;
31238;SDS011;17871;31.584;74.450;2022-11-14T05:31:49;18.05;;;9.95;;
31238;SDS011;17871;31.584;74.450;2022-11-14T05:34:37;19.58;;;9.85;;
31238;SDS011;17871;31.584;74.450;2022-11-14T05:37:25;18.23;;;12.15;;
31238;SDS011;17871;31.584;74.450;2022-11-14T05:40:13;23.90;;;12.70;;
31238;SDS011;17871;31.584;74.450;2022-11-14T05:43:02;25.35;;;14.10;;
31238;SDS011;17871;31.584;74.450;2022-11-14T05:45:50;26.77;;;14.80;;
31238;SDS011;17871;31.584;74.450;2022-11-14T05:48:38;33.88;;;17.98;;
31238;SDS011;17871;31.584;74.450;2022-11-14T05:51:27;41.13;;;17.38;;
31238;SDS011;17871;31.584;74.450;2022-11-14T05:54:15;34.05;;;19.85;;
31238;SDS011;17871;31.584;74.450;2022-11-14T05:57:03;38.72;;;20.25;;
31238;SDS011;17871;31.584;74.450;2022-11-14T05:59:51;30.60;;;18.15;;
31238;SDS011;17871;31.584;74.450;2022-11-14T06:02:40;32.58;;;17.90;;
31238;SDS011;17871;31.584;74.450;2022-11-14T06:05:28;39.40;;;20.45;;
31238;SDS011;17871;31.584;74.450;2022-11-14T06:08:16;30.08;;;18.02;;
31238;SDS011;17871;31.584;74.450;2022-11-14T06:11:06;31.85;;;17.42;;
31238;SDS011;17871;31.584;74.450;2022-11-14T06:14:04;32.60;;;18.15;;
31238;SDS011;17871;31.584;74.450;2022-11-14T06:16:56;36.00;;;18.05;;
31238;SDS011;17871;31.584;74.450;2022-11-14T06:19:43;33.47;;;16.13;;
31238;SDS011;17871;31.584;74.450;2022-11-14T06:22:31;28.65;;;14.55;;
31238;SDS011;17871;31.584;74.450;2022-11-14T06:25:19;25.63;;;13.77;;
31238;SDS011;17871;31.584;74.450;2022-11-14T06:28:08;19.65;;;11.25;;
31238;SDS011;17871;31.584;74.450;2022-11-14T06:30:59;32.67;;;12.27;;
31238;SDS011;17871;31.584;74.450;2022-11-14T06:33:48;24.77;;;14.17;;
31238;SDS011;17871;31.584;74.450;2022-11-14T06:36:36;29.80;;;13.25;;
31238;SDS011;17871;31.584;74.450;2022-11-14T06:39:23;22.20;;;12.32;;
31238;SDS011;17871;31.584;74.450;2022-11-14T06:42:11;22.77;;;11.23;;
31238;SDS011;17871;31.584;74.450;2022-11-14T06:44:59;23.83;;;11.25;;
31238;SDS011;17871;31.584;74.450;2022-11-14T06:47:46;21.67;;;11.85;;
31238;SDS011;17871;31.584;74.450;2022-11-14T06:50:34;22.02;;;9.70;;
31238;SDS011;17871;31.584;74.450;2022-11-14T06:53:22;22.25;;;11.07;;
31238;SDS011;17871;31.584;74.450;2022-11-14T06:56:14;18.33;;;7.40;;
31238;SDS011;17871;31.584;74.450;2022-11-14T06:59:02;17.73;;;6.88;;
31238;SDS011;17871;31.584;74.450;2022-11-14T07:01:50;11.77;;;6.22;;
31238;SDS011;17871;31.584;74.450;2022-11-14T07:04:38;11.43;;;6.03;;
31238;SDS011;17871;31.584;74.450;2022-11-14T07:07:26;14.45;;;5.82;;
31238;SDS011;17871;31.584;74.450;2022-11-14T07:10:13;7.03;;;5.07;;
31238;SDS011;17871;31.584;74.450;2022-11-14T07:13:01;8.15;;;4.90;;
31238;SDS011;17871;31.584;74.450;2022-11-14T07:15:52;13.23;;;5.70;;
31238;SDS011;17871;31.584;74.450;2022-11-14T07:18:40;17.88;;;6.13;;
31238;SDS011;17871;31.584;74.450;2022-11-14T07:21:28;12.80;;;5.40;;
31238;SDS011;17871;31.584;74.450;2022-11-14T07:24:17;10.35;;;4.63;;
31238;SDS011;17871;31.584;74.450;2022-11-14T07:27:04;13.45;;;4.60;;
31238;SDS011;17871;31.584;74.450;2022-11-14T07:29:55;11.23;;;4.97;;
31238;SDS011;17871;31.584;74.450;2022-11-14T07:32:42;9.10;;;4.68;;
31238;SDS011;17871;31.584;74.450;2022-11-14T07:35:30;17.58;;;5.07;;
31238;SDS011;17871;31.584;74.450;2022-11-14T07:38:18;11.50;;;5.45;;
31238;SDS011;17871;31.584;74.450;2022-11-14T07:41:07;8.95;;;5.00;;
31238;SDS011;17871;31.584;74.450;2022-11-14T07:43:57;20.40;;;6.50;;
31238;SDS011;17871;31.584;74.450;2022-11-14T07:46:44;15.75;;;4.65;;
31238;SDS011;17871;31.584;74.450;2022-11-14T07:49:32;28.92;;;8.45;;
31238;SDS011;17871;31.584;74.450;2022-11-14T07:52:20;18.40;;;6.53;;
31238;SDS011;17871;31.584;74.450;2022-11-14T07:55:07;9.68;;;5.15;;
31238;SDS011;17871;31.584;74.450;2022-11-14T07:57:58;9.63;;;4.35;;
31238;SDS011;17871;31.584;74.450;2022-11-14T08:00:45;12.23;;;5.05;;
31238;SDS011;17871;31.584;74.450;2022-11-14T08:03:34;25.08;;;6.28;;
31238;SDS011;17871;31.584;74.450;2022-11-14T08:06:28;11.32;;;4.78;;
31238;SDS011;17871;31.584;74.450;2022-11-14T08:09:17;24.67;;;6.68;;
31238;SDS011;17871;31.584;74.450;2022-11-14T08:12:05;13.55;;;5.60;;
31238;SDS011;17871;31.584;74.450;2022-11-14T08:14:53;19.13;;;7.13;;
31238;SDS011;17871;31.584;74.450;2022-11-14T08:17:41;12.68;;;5.78;;
31238;SDS011;17871;31.584;74.450;2022-11-14T08:20:29;16.92;;;6.55;;
31238;SDS011;17871;31.584;74.450;2022-11-14T08:23:16;22.63;;;7.85;;
31238;SDS011;17871;31.584;74.450;2022-11-14T08:26:04;29.55;;;8.95;;
31238;SDS011;17871;31.584;74.450;2022-11-14T08:28:52;16.83;;;7.53;;
31238;SDS011;17871;31.584;74.450;2022-11-14T08:31:41;20.23;;;8.07;;
31238;SDS011;17871;31.584;74.450;2022-11-14T08:34:30;27.65;;;10.27;;
31238;SDS011;17871;31.584;74.450;2022-11-14T08:37:18;16.35;;;6.60;;
31238;SDS011;17871;31.584;74.450;2022-11-14T08:40:06;15.27;;;7.45;;
31238;SDS011;17871;31.584;74.450;2022-11-14T08:42:57;20.65;;;8.88;;
31238;SDS011;17871;31.584;74.450;2022-11-14T08:45:46;22.33;;;10.73;;
31238;SDS011;17871;31.584;74.450;2022-11-14T08:48:34;18.00;;;8.48;;
31238;SDS011;17871;31.584;74.450;2022-11-14T08:51:22;17.23;;;6.15;;
31238;SDS011;17871;31.584;74.450;2022-11-14T08:54:10;14.90;;;6.53;;
31238;SDS011;17871;31.584;74.450;2022-11-14T08:56:58;16.85;;;7.45;;
31238;SDS011;17871;31.584;74.450;2022-11-14T08:59:45;20.60;;;6.45;;
31238;SDS011;17871;31.584;74.450;2022-11-14T09:02:43;17.42;;;7.22;;
31238;SDS011;17871;31.584;74.450;2022-11-14T09:05:32;15.25;;;7.53;;
31238;SDS011;17871;31.584;74.450;2022-11-14T09:08:21;8.63;;;5.63;;
31238;SDS011;17871;31.584;74.450;2022-11-14T09:11:10;18.02;;;8.52;;
31238;SDS011;17871;31.584;74.450;2022-11-14T09:14:03;14.77;;;7.00;;
31238;SDS011;17871;31.584;74.450;2022-11-14T09:16:52;12.93;;;6.15;;
31238;SDS011;17871;31.584;74.450;2022-11-14T09:19:40;15.27;;;6.30;;
31238;SDS011;17871;31.584;74.450;2022-11-14T09:22:28;11.77;;;7.75;;
31238;SDS011;17871;31.584;74.450;2022-11-14T09:25:19;15.00;;;7.55;;
31238;SDS011;17871;31.584;74.450;2022-11-14T09:28:08;15.57;;;7.78;;
31238;SDS011;17871;31.584;74.450;2022-11-14T09:31:05;13.52;;;6.30;;
31238;SDS011;17871;31.584;74.450;2022-11-14T09:33:55;12.85;;;6.53;;
31238;SDS011;17871;31.584;74.450;2022-11-14T09:36:43;13.55;;;7.00;;
31238;SDS011;17871;31.584;74.450;2022-11-14T09:39:32;17.65;;;7.03;;
31238;SDS011;17871;31.584;74.450;2022-11-14T09:45:47;11.27;;;6.70;;
31238;SDS011;17871;31.584;74.450;2022-11-14T09:48:36;11.43;;;6.35;;
31238;SDS011;17871;31.584;74.450;2022-11-14T09:51:29;14.02;;;6.40;;
31238;SDS011;17871;31.584;74.450;2022-11-14T09:54:38;15.55;;;6.72;;
31238;SDS011;17871;31.584;74.450;2022-11-14T09:57:32;11.20;;;6.47;;
31238;SDS011;17871;31.584;74.450;2022-11-14T10:00:21;9.57;;;6.22;;
31238;SDS011;17871;31.584;74.450;2022-11-14T10:09:38;11.57;;;6.28;;
31238;SDS011;17871;31.584;74.450;2022-11-14T10:22:10;24.40;;;6.68;;
31238;SDS011;17871;31.584;74.450;2022-11-14T10:28:32;17.42;;;6.15;;
31238;SDS011;17871;31.584;74.450;2022-11-14T10:31:52;11.98;;;6.18;;
31238;SDS011;17871;31.584;74.450;2022-11-14T10:34:50;13.70;;;6.47;;
31238;SDS011;17871;31.584;74.450;2022-11-14T10:40:58;11.98;;;6.75;;
31238;SDS011;17871;31.584;74.450;2022-11-14T10:43:50;19.08;;;7.40;;
31238;SDS011;17871;31.584;74.450;2022-11-14T10:46:39;9.57;;;6.50;;
31238;SDS011;17871;31.584;74.450;2022-11-14T10:49:32;37.20;;;8.23;;
31238;SDS011;17871;31.584;74.450;2022-11-14T10:52:25;16.27;;;5.93;;
31238;SDS011;17871;31.584;74.450;2022-11-14T10:55:24;19.73;;;6.25;;
31238;SDS011;17871;31.584;74.450;2022-11-14T10:58:32;35.00;;;7.93;;
31238;SDS011;17871;31.584;74.450;2022-11-14T11:04:27;9.63;;;5.85;;
31238;SDS011;17871;31.584;74.450;2022-11-14T11:10:40;14.63;;;6.70;;
31238;SDS011;17871;31.584;74.450;2022-11-14T11:13:52;24.65;;;11.50;;
31238;SDS011;17871;31.584;74.450;2022-11-14T11:16:41;18.30;;;11.00;;
31238;SDS011;17871;31.584;74.450;2022-11-14T11:19:29;20.00;;;8.77;;
31238;SDS011;17871;31.584;74.450;2022-11-14T11:25:22;21.30;;;10.52;;
31238;SDS011;17871;31.584;74.450;2022-11-14T11:28:18;33.17;;;13.38;;
31238;SDS011;17871;31.584;74.450;2022-11-14T11:31:08;20.95;;;9.85;;
31238;SDS011;17871;31.584;74.450;2022-11-14T11:34:01;17.13;;;7.60;;
31238;SDS011;17871;31.584;74.450;2022-11-14T11:36:54;16.58;;;7.28;;
31238;SDS011;17871;31.584;74.450;2022-11-14T11:39:53;14.15;;;7.25;;
31238;SDS011;17871;31.584;74.450;2022-11-14T11:42:46;14.85;;;7.70;;
31238;SDS011;17871;31.584;74.450;2022-11-14T11:46:28;13.93;;;7.50;;
31238;SDS011;17871;31.584;74.450;2022-11-14T11:52:44;16.73;;;9.75;;
31238;SDS011;17871;31.584;74.450;2022-11-14T11:55:35;23.55;;;12.00;;
31238;SDS011;17871;31.584;74.450;2022-11-14T11:58:51;24.27;;;12.88;;
31238;SDS011;17871;31.584;74.450;2022-11-14T12:01:40;56.65;;;30.90;;
31238;SDS011;17871;31.584;74.450;2022-11-14T12:04:29;117.07;;;51.83;;
31238;SDS011;17871;31.584;74.450;2022-11-14T12:07:24;99.28;;;44.40;;
31238;SDS011;17871;31.584;74.450;2022-11-14T12:10:20;64.85;;;25.98;;
31238;SDS011;17871;31.584;74.450;2022-11-14T12:31:36;79.75;;;41.22;;
31238;SDS011;17871;31.584;74.450;2022-11-14T12:34:28;88.80;;;42.28;;
31238;SDS011;17871;31.584;74.450;2022-11-14T12:37:34;53.33;;;27.92;;
31238;SDS011;17871;31.584;74.450;2022-11-14T12:40:31;44.15;;;21.40;;
31238;SDS011;17871;31.584;74.450;2022-11-14T12:46:22;27.13;;;13.85;;
31238;SDS011;17871;31.584;74.450;2022-11-14T12:52:49;18.52;;;10.38;;
31238;SDS011;17871;31.584;74.450;2022-11-14T13:02:08;22.70;;;10.57;;
31238;SDS011;17871;31.584;74.450;2022-11-14T13:15:32;39.60;;;13.50;;
31238;SDS011;17871;31.584;74.450;2022-11-14T13:27:49;31.45;;;12.18;;
31238;SDS011;17871;31.584;74.450;2022-11-14T13:37:44;19.83;;;10.70;;
31238;SDS011;17871;31.584;74.450;2022-11-14T13:41:00;29.73;;;10.88;;
31238;SDS011;17871;31.584;74.450;2022-11-14T13:50:35;36.53;;;18.90;;
31238;SDS011;17871;31.584;74.450;2022-11-14T13:53:29;62.60;;;23.48;;
31238;SDS011;17871;31.584;74.450;2022-11-14T13:56:30;50.65;;;22.65;;
31238;SDS011;17871;31.584;74.450;2022-11-14T13:59:31;48.67;;;20.70;;
31238;SDS011;17871;31.584;74.450;2022-11-14T14:02:35;46.22;;;21.42;;
31238;SDS011;17871;31.584;74.450;2022-11-14T14:18:12;41.88;;;17.33;;
31238;SDS011;17871;31.584;74.450;2022-11-14T14:21:10;38.70;;;16.67;;
31238;SDS011;17871;31.584;74.450;2022-11-14T14:24:08;30.98;;;15.05;;
31238;SDS011;17871;31.584;74.450;2022-11-14T14:30:10;37.83;;;17.30;;
31238;SDS011;17871;31.584;74.450;2022-11-14T14:33:11;30.58;;;15.50;;
31238;SDS011;17871;31.584;74.450;2022-11-14T14:36:00;30.67;;;15.88;;
31238;SDS011;17871;31.584;74.450;2022-11-14T14:38:48;31.48;;;15.45;;
31238;SDS011;17871;31.584;74.450;2022-11-14T14:41:36;39.85;;;15.52;;
31238;SDS011;17871;31.584;74.450;2022-11-14T14:44:29;32.65;;;16.05;;
31238;SDS011;17871;31.584;74.450;2022-11-14T14:50:38;35.83;;;17.75;;
31238;SDS011;17871;31.584;74.450;2022-11-14T14:53:34;35.78;;;16.83;;
31238;SDS011;17871;31.584;74.450;2022-11-14T14:56:23;28.23;;;15.45;;
31238;SDS011;17871;31.584;74.450;2022-11-14T14:59:15;24.65;;;14.80;;
31238;SDS011;17871;31.584;74.450;2022-11-14T15:02:12;36.05;;;18.08;;
31238;SDS011;17871;31.584;74.450;2022-11-14T15:05:02;33.60;;;15.27;;
31238;SDS011;17871;31.584;74.450;2022-11-14T15:07:55;33.83;;;17.63;;
31238;SDS011;17871;31.584;74.450;2022-11-14T15:10:45;36.72;;;15.52;;
31238;SDS011;17871;31.584;74.450;2022-11-14T15:13:32;42.38;;;18.83;;
31238;SDS011;17871;31.584;74.450;2022-11-14T15:16:23;50.85;;;26.65;;
31238;SDS011;17871;31.584;74.450;2022-11-14T15:19:12;54.95;;;28.58;;
31238;SDS011;17871;31.584;74.450;2022-11-14T15:22:04;62.38;;;34.10;;
31238;SDS011;17871;31.584;74.450;2022-11-14T15:25:16;48.88;;;23.98;;
31238;SDS011;17871;31.584;74.450;2022-11-14T15:28:15;42.22;;;20.00;;
31238;SDS011;17871;31.584;74.450;2022-11-14T15:31:11;31.27;;;13.82;;
31238;SDS011;17871;31.584;74.450;2022-11-14T15:34:05;24.83;;;13.10;;
31238;SDS011;17871;31.584;74.450;2022-11-14T15:40:15;29.75;;;15.50;;
31238;SDS011;17871;31.584;74.450;2022-11-14T15:49:21;33.65;;;15.57;;
31238;SDS011;17871;31.584;74.450;2022-11-14T15:52:17;31.00;;;16.00;;
31238;SDS011;17871;31.584;74.450;2022-11-14T15:55:16;28.75;;;14.45;;
31238;SDS011;17871;31.584;74.450;2022-11-14T15:58:09;28.63;;;15.68;;
31238;SDS011;17871;31.584;74.450;2022-11-14T16:01:15;39.47;;;19.38;;
31238;SDS011;17871;31.584;74.450;2022-11-14T16:04:10;50.63;;;20.88;;
31238;SDS011;17871;31.584;74.450;2022-11-14T16:07:04;31.02;;;16.67;;
31238;SDS011;17871;31.584;74.450;2022-11-14T16:09:52;24.92;;;14.65;;
31238;SDS011;17871;31.584;74.450;2022-11-14T16:12:41;30.02;;;15.00;;
31238;SDS011;17871;31.584;74.450;2022-11-14T16:15:35;32.80;;;15.25;;
31238;SDS011;17871;31.584;74.450;2022-11-14T16:18:23;36.20;;;17.45;;
31238;SDS011;17871;31.584;74.450;2022-11-14T16:21:11;37.65;;;17.77;;
31238;SDS011;17871;31.584;74.450;2022-11-14T16:24:02;33.42;;;14.73;;
31238;SDS011;17871;31.584;74.450;2022-11-14T16:26:50;44.15;;;22.38;;
31238;SDS011;17871;31.584;74.450;2022-11-14T16:29:38;50.60;;;24.52;;
31238;SDS011;17871;31.584;74.450;2022-11-14T16:32:26;49.75;;;24.27;;
31238;SDS011;17871;31.584;74.450;2022-11-14T16:35:15;45.92;;;25.00;;
31238;SDS011;17871;31.584;74.450;2022-11-14T16:38:04;54.80;;;27.35;;
31238;SDS011;17871;31.584;74.450;2022-11-14T16:40:52;50.90;;;26.10;;
31238;SDS011;17871;31.584;74.450;2022-11-14T16:43:39;58.20;;;28.85;;
31238;SDS011;17871;31.584;74.450;2022-11-14T16:46:27;64.40;;;31.45;;
31238;SDS011;17871;31.584;74.450;2022-11-14T16:49:14;64.50;;;31.08;;
31238;SDS011;17871;31.584;74.450;2022-11-14T16:52:04;78.10;;;34.65;;
31238;SDS011;17871;31.584;74.450;2022-11-14T16:54:54;78.68;;;35.88;;
31238;SDS011;17871;31.584;74.450;2022-11-14T16:57:42;74.45;;;36.10;;
31238;SDS011;17871;31.584;74.450;2022-11-14T17:00:30;73.65;;;30.60;;
31238;SDS011;17871;31.584;74.450;2022-11-14T17:03:19;73.15;;;31.42;;
31238;SDS011;17871;31.584;74.450;2022-11-14T17:06:07;61.53;;;29.15;;
31238;SDS011;17871;31.584;74.450;2022-11-14T17:08:58;63.70;;;28.52;;
31238;SDS011;17871;31.584;74.450;2022-11-14T17:11:46;82.28;;;35.35;;
31238;SDS011;17871;31.584;74.450;2022-11-14T17:14:34;71.85;;;32.58;;
31238;SDS011;17871;31.584;74.450;2022-11-14T17:17:22;75.82;;;34.65;;
31238;SDS011;17871;31.584;74.450;2022-11-14T17:20:10;82.88;;;36.30;;
31238;SDS011;17871;31.584;74.450;2022-11-14T17:22:58;103.65;;;43.25;;
31238;SDS011;17871;31.584;74.450;2022-11-14T17:25:45;122.25;;;47.38;;
31238;SDS011;17871;31.584;74.450;2022-11-14T17:28:33;135.55;;;51.08;;
31238;SDS011;17871;31.584;74.450;2022-11-14T17:31:21;118.95;;;47.13;;
31238;SDS011;17871;31.584;74.450;2022-11-14T17:34:09;92.55;;;41.25;;
31238;SDS011;17871;31.584;74.450;2022-11-14T17:36:56;102.82;;;40.85;;
31238;SDS011;17871;31.584;74.450;2022-11-14T17:39:44;75.78;;;35.80;;
31238;SDS011;17871;31.584;74.450;2022-11-14T17:42:31;76.03;;;34.90;;
31238;SDS011;17871;31.584;74.450;2022-11-14T17:45:20;72.00;;;32.33;;
31238;SDS011;17871;31.584;74.450;2022-11-14T17:48:07;71.68;;;33.15;;
31238;SDS011;17871;31.584;74.450;2022-11-14T17:50:55;66.60;;;28.58;;
31238;SDS011;17871;31.584;74.450;2022-11-14T17:53:48;56.88;;;27.27;;
31238;SDS011;17871;31.584;74.450;2022-11-14T17:56:36;52.13;;;26.42;;
31238;SDS011;17871;31.584;74.450;2022-11-14T17:59:32;50.42;;;22.25;;
31238;SDS011;17871;31.584;74.450;2022-11-14T18:02:21;40.47;;;18.60;;
31238;SDS011;17871;31.584;74.450;2022-11-14T18:05:09;39.33;;;17.83;;
31238;SDS011;17871;31.584;74.450;2022-11-14T18:07:56;30.38;;;16.70;;
31238;SDS011;17871;31.584;74.450;2022-11-14T18:10:45;31.08;;;16.83;;
31238;SDS011;17871;31.584;74.450;2022-11-14T18:13:32;34.65;;;17.67;;
31238;SDS011;17871;31.584;74.450;2022-11-14T18:16:20;34.75;;;18.73;;
31238;SDS011;17871;31.584;74.450;2022-11-14T18:19:19;39.88;;;18.38;;
31238;SDS011;17871;31.584;74.450;2022-11-14T18:22:07;25.70;;;14.38;;
31238;SDS011;17871;31.584;74.450;2022-11-14T18:24:54;24.70;;;12.75;;
31238;SDS011;17871;31.584;74.450;2022-11-14T18:27:41;25.02;;;11.18;;
31238;SDS011;17871;31.584;74.450;2022-11-14T18:30:29;19.20;;;10.55;;
31238;SDS011;17871;31.584;74.450;2022-11-14T18:33:26;17.52;;;10.02;;
31238;SDS011;17871;31.584;74.450;2022-11-14T18:36:14;17.58;;;10.32;;
31238;SDS011;17871;31.584;74.450;2022-11-14T18:39:03;19.90;;;9.98;;
31238;SDS011;17871;31.584;74.450;2022-11-14T18:41:52;20.80;;;11.32;;
31238;SDS011;17871;31.584;74.450;2022-11-14T18:44:40;21.10;;;10.40;;